Time;durP1;ratioP1;P1;durP2;ratioP2;P2;SDS_P1;SDS_P2;PMS_P1;PMS_P2;Temp;Humidity;BMP_temperature;BMP_pressure;BME280_temperature;BME280_humidity;BME280_pressure;Samples;Min_cycle;Max_cycle;Signal;HPM_P1;HPM_P2
2021/09/22 00:01:44;;;;;;;15.03;10.68;;;;;;;9.04;81.02;100827.29;1775269;80;20897;-68
2021/09/22 00:04:13;;;;;;;14.70;9.18;;;;;;;9.05;81.08;100823.77;1775216;80;20975;-67
2021/09/22 00:06:40;;;;;;;16.57;9.53;;;;;;;9.06;81.09;100827.22;1775245;80;20897;-68
2021/09/22 00:09:07;;;;;;;17.00;8.78;;;;;;;9.04;81.08;100819.91;1775382;80;21410;-69
2021/09/22 00:11:35;;;;;;;15.50;9.78;;;;;;;9.04;81.05;100817.30;1781384;80;20937;-67
2021/09/22 00:14:02;;;;;;;14.87;9.60;;;;;;;9.03;81.00;100826.08;1783962;80;21401;-68
2021/09/22 00:16:29;;;;;;;16.93;8.88;;;;;;;9.04;80.97;100822.53;1783551;80;20911;-67
2021/09/22 00:18:58;;;;;;;12.03;9.53;;;;;;;9.02;80.95;100819.98;1783731;80;20912;-68
2021/09/22 00:21:26;;;;;;;9.83;7.33;;;;;;;9.01;80.99;100818.77;1783832;80;20979;-69
2021/09/22 00:23:53;;;;;;;11.80;7.65;;;;;;;9.01;80.98;100818.77;1784271;80;21018;-67
2021/09/22 00:26:22;;;;;;;7.78;4.78;;;;;;;8.99;80.98;100814.91;1784569;80;20964;-67
2021/09/22 00:28:49;;;;;;;10.00;5.30;;;;;;;8.97;80.80;100814.14;1785330;80;20856;-66
2021/09/22 00:31:16;;;;;;;6.92;4.67;;;;;;;8.97;80.75;100814.14;1784836;80;20975;-68
2021/09/22 00:33:44;;;;;;;10.78;5.20;;;;;;;8.94;80.59;100810.38;1784327;80;21972;-68
2021/09/22 00:36:11;;;;;;;4.85;4.35;;;;;;;8.91;80.58;100810.08;1783646;80;20876;-67
2021/09/22 00:38:40;;;;;;;9.63;5.00;;;;;;;8.90;80.60;100808.37;1783852;80;20856;-69
2021/09/22 00:41:07;;;;;;;6.75;4.10;;;;;;;8.88;80.68;100806.29;1783643;80;21474;-68
2021/09/22 00:43:36;;;;;;;5.92;5.15;;;;;;;8.86;80.68;100800.29;1783960;80;21437;-69
2021/09/22 00:46:06;;;;;;;8.63;4.80;;;;;;;8.83;80.70;100800.45;1783809;80;21524;-67
2021/09/22 00:48:34;;;;;;;9.85;5.20;;;;;;;8.82;80.76;100801.83;1783702;80;20952;-68
2021/09/22 00:51:05;;;;;;;7.62;4.55;;;;;;;8.80;80.93;100802.36;1783714;80;21496;-67
2021/09/22 00:53:34;;;;;;;5.08;4.45;;;;;;;8.79;80.97;100808.06;1783719;80;21379;-68
2021/09/22 00:56:05;;;;;;;11.48;6.37;;;;;;;8.78;81.08;100806.82;1783692;80;20916;-68
2021/09/22 00:58:34;;;;;;;7.95;6.22;;;;;;;8.76;81.23;100799.07;1783831;80;21011;-67
2021/09/22 01:01:01;;;;;;;8.98;6.10;;;;;;;8.76;81.36;100794.28;1783662;80;20984;-68
2021/09/22 01:03:28;;;;;;;5.85;4.72;;;;;;;8.75;81.49;100797.36;1783844;80;20939;-68
2021/09/22 01:05:57;;;;;;;9.38;4.95;;;;;;;8.73;81.57;100792.67;1783564;80;21541;-69
2021/09/22 01:08:28;;;;;;;8.00;5.40;;;;;;;8.73;81.58;100799.67;1783793;80;20972;-68
2021/09/22 01:10:56;;;;;;;6.45;4.85;;;;;;;8.69;81.60;100797.22;1783284;80;22042;-69
2021/09/22 01:13:24;;;;;;;8.08;5.40;;;;;;;8.68;81.69;100792.06;1783353;80;21508;-67
2021/09/22 01:15:52;;;;;;;7.58;4.65;;;;;;;8.67;81.80;100788.61;1783455;80;20920;-68
2021/09/22 01:18:22;;;;;;;10.65;5.97;;;;;;;8.66;81.83;100786.06;1783270;80;20900;-67
2021/09/22 01:20:54;;;;;;;11.95;6.25;;;;;;;8.65;81.85;100791.75;1783329;80;20916;-68
2021/09/22 01:23:25;;;;;;;9.83;6.30;;;;;;;8.65;81.92;100793.53;1783412;80;21500;-68
2021/09/22 01:25:53;;;;;;;8.40;6.12;;;;;;;8.63;81.94;100791.45;1783562;80;21006;-67
2021/09/22 01:28:27;;;;;;;7.22;5.90;;;;;;;8.61;81.94;100791.98;1783731;80;20876;-68
2021/09/22 01:30:54;;;;;;;9.75;6.22;;;;;;;8.60;81.90;100795.03;1783545;80;21457;-68
2021/09/22 01:33:23;;;;;;;8.98;6.03;;;;;;;8.59;81.89;100792.52;1783712;80;20852;-69
2021/09/22 01:35:52;;;;;;;11.08;6.60;;;;;;;8.57;81.88;100788.66;1781396;80;21192;-67
2021/09/22 01:38:24;;;;;;;9.70;5.72;;;;;;;8.57;81.90;100786.52;1783149;80;21374;-69
2021/09/22 01:41:04;;;;;;;8.20;6.47;;;;;;;8.56;81.90;100792.20;1781996;80;21486;-67
2021/09/22 01:43:33;;;;;;;7.42;5.67;;;;;;;8.55;81.87;100791.80;1783502;80;21442;-68
2021/09/22 01:46:01;;;;;;;9.65;6.62;;;;;;;8.57;81.86;100785.20;1783464;80;20940;-69
2021/09/22 01:48:28;;;;;;;10.03;6.20;;;;;;;8.56;81.90;100786.98;1783256;80;22156;-68
2021/09/22 01:50:58;;;;;;;9.30;6.87;;;;;;;8.55;81.88;100783.13;1783488;80;21452;-67
2021/09/22 01:53:27;;;;;;;15.78;9.28;;;;;;;8.56;81.93;100789.59;1783462;80;20896;-68
2021/09/22 01:55:55;;;;;;;12.18;9.05;;;;;;;8.54;81.96;100784.03;1783556;80;20920;-69
2021/09/22 01:58:22;;;;;;;16.40;10.30;;;;;;;8.54;82.01;100779.67;1783354;80;20880;-68
2021/09/22 02:00:57;;;;;;;14.93;10.82;;;;;;;8.53;82.05;100780.58;1782774;80;22062;-67
2021/09/22 02:03:29;;;;;;;18.32;10.90;;;;;;;8.53;82.01;100781.05;1782605;80;20821;-67
2021/09/22 02:05:58;;;;;;;18.85;11.22;;;;;;;8.52;81.94;100784.59;1782504;80;20840;-67
2021/09/22 02:08:26;;;;;;;18.87;11.83;;;;;;;8.52;81.81;100786.73;1783433;80;20943;-68
2021/09/22 02:10:55;;;;;;;15.70;11.15;;;;;;;8.49;81.77;100783.82;1780961;80;20924;-69
2021/09/22 02:13:23;;;;;;;14.43;10.63;;;;;;;8.49;81.79;100782.95;1775057;80;21564;-68
2021/09/22 02:15:50;;;;;;;14.30;10.20;;;;;;;8.49;81.83;100785.13;1775110;80;20900;-67
2021/09/22 02:18:30;;;;;;;15.65;9.30;;;;;;;8.49;81.88;100780.34;1744758;80;21374;-67
2021/09/22 02:20:57;;;;;;;13.75;8.85;;;;;;;8.49;81.84;100775.11;1775561;80;20876;-68
2021/09/22 02:25:54;;;;;;;15.95;8.80;;;;;;;8.53;81.88;100788.89;1797689;79;23247;-68
2021/09/22 02:28:23;;;;;;;10.13;8.50;;;;;;;8.47;81.86;100791.32;1758251;80;20947;-67
2021/09/22 02:30:50;;;;;;;12.33;8.28;;;;;;;8.47;81.81;100794.80;1758163;80;21752;-68
2021/09/22 02:33:17;;;;;;;12.35;9.40;;;;;;;8.48;81.75;100793.03;1758065;80;21024;-68
2021/09/22 02:35:44;;;;;;;11.10;7.97;;;;;;;8.47;81.75;100796.55;1769957;80;20879;-68
2021/09/22 02:38:14;;;;;;;14.65;10.40;;;;;;;8.47;81.68;100793.50;1792732;78;21445;-67
2021/09/22 02:40:43;;;;;;;17.30;9.35;;;;;;;8.46;81.66;100789.17;1792805;80;20864;-68
2021/09/22 02:43:11;;;;;;;10.08;8.30;;;;;;;8.46;81.64;100791.79;1792494;80;21528;-67
2021/09/22 02:45:39;;;;;;;13.35;8.90;;;;;;;8.45;81.56;100787.97;1792387;78;20910;-69
2021/09/22 02:48:07;;;;;;;11.25;8.70;;;;;;;8.46;81.63;100790.95;1792500;80;20875;-68
2021/09/22 02:50:36;;;;;;;9.80;7.67;;;;;;;8.45;81.74;100797.95;1792521;80;20868;-68
2021/09/22 02:53:03;;;;;;;11.60;6.83;;;;;;;8.44;81.73;100794.94;1792556;80;20935;-69
2021/09/22 02:55:31;;;;;;;9.20;7.37;;;;;;;8.46;81.71;100796.17;1792465;80;21035;-67
2021/09/22 02:57:58;;;;;;;14.03;6.70;;;;;;;8.45;81.67;100793.19;1792535;78;20899;-67
2021/09/22 03:00:25;;;;;;;8.98;6.60;;;;;;;8.45;81.66;100791.42;1792704;79;21381;-67
2021/09/22 03:02:54;;;;;;;11.12;7.70;;;;;;;8.45;81.64;100795.80;1792406;80;21441;-68
2021/09/22 03:05:22;;;;;;;7.87;6.67;;;;;;;8.45;81.58;100794.03;1792614;80;20990;-69
2021/09/22 03:07:49;;;;;;;11.55;7.65;;;;;;;8.45;81.58;100794.50;1792421;80;21588;-68
2021/09/22 03:10:21;;;;;;;12.35;9.28;;;;;;;8.46;81.57;100796.17;1792504;78;20871;-67
2021/09/22 03:12:49;;;;;;;13.13;8.00;;;;;;;8.45;81.49;100794.03;1792432;80;21048;-68
2021/09/22 03:15:17;;;;;;;10.72;8.08;;;;;;;8.45;81.45;100796.64;1792731;80;21424;-68
2021/09/22 03:17:44;;;;;;;8.63;7.65;;;;;;;8.46;81.44;100797.48;1792464;80;20914;-67
2021/09/22 03:20:12;;;;;;;9.25;7.75;;;;;;;8.47;81.45;100803.95;1792253;80;21154;-69
2021/09/22 03:22:39;;;;;;;11.00;7.65;;;;;;;8.48;81.41;100800.88;1792347;80;20931;-67
2021/09/22 03:25:15;;;;;;;8.93;7.33;;;;;;;8.49;81.40;100801.24;1785695;79;20936;-67
2021/09/22 03:27:43;;;;;;;10.68;7.47;;;;;;;8.50;81.44;100802.48;1781256;80;21036;-67
2021/09/22 03:30:11;;;;;;;11.50;6.85;;;;;;;8.52;81.38;100797.66;1781587;80;20927;-67
2021/09/22 03:32:40;;;;;;;8.53;7.17;;;;;;;8.51;81.33;100804.63;1781175;80;21549;-68
2021/09/22 03:35:08;;;;;;;7.65;5.58;;;;;;;8.52;81.36;100802.89;1781604;80;20891;-67
2021/09/22 03:37:35;;;;;;;9.55;6.12;;;;;;;8.52;81.41;100805.50;1781350;80;21338;-68
2021/09/22 03:40:05;;;;;;;7.95;5.30;;;;;;;8.51;81.41;100800.71;1781408;80;20931;-66
2021/09/22 03:42:34;;;;;;;7.72;5.37;;;;;;;8.53;81.39;100807.19;1782187;80;20923;-67
2021/09/22 03:45:03;;;;;;;7.30;5.10;;;;;;;8.53;81.40;100797.56;1781864;79;21151;-69
2021/09/22 03:47:31;;;;;;;8.93;4.65;;;;;;;8.55;81.35;100798.34;1781077;80;20915;-68
2021/09/22 03:49:58;;;;;;;7.10;5.42;;;;;;;8.56;81.24;100800.05;1780730;80;21432;-68
2021/09/22 03:52:31;;;;;;;8.68;5.58;;;;;;;8.58;81.20;100794.29;1780376;80;20971;-67
2021/09/22 03:54:59;;;;;;;7.15;5.75;;;;;;;8.60;81.21;100795.03;1780871;79;20864;-68
2021/09/22 03:57:26;;;;;;;9.00;5.35;;;;;;;8.63;81.48;100786.22;1780742;79;21126;-70
2021/09/22 03:59:53;;;;;;;9.30;5.70;;;;;;;8.66;81.47;100787.36;1780788;79;20958;-69
2021/09/22 04:02:22;;;;;;;8.88;5.97;;;;;;;8.69;81.60;100794.61;1780722;80;21405;-68
2021/09/22 04:04:49;;;;;;;10.00;6.53;;;;;;;8.74;81.47;100793.51;1780690;80;20895;-69
2021/09/22 04:07:16;;;;;;;9.88;5.95;;;;;;;8.76;81.29;100792.97;1780854;80;21405;-69
2021/09/22 04:09:45;;;;;;;6.65;5.50;;;;;;;8.78;81.22;100798.97;1781056;79;21269;-67
2021/09/22 04:12:12;;;;;;;11.80;7.85;;;;;;;8.78;81.25;100793.30;1780679;79;20880;-68
2021/09/22 04:14:39;;;;;;;12.58;6.78;;;;;;;8.81;81.21;100801.45;1780728;80;21014;-68
2021/09/22 04:17:08;;;;;;;12.82;6.90;;;;;;;8.81;81.17;100798.84;1780650;80;20888;-68
2021/09/22 04:19:35;;;;;;;11.93;6.95;;;;;;;8.83;81.20;100797.84;1781076;80;20918;-69
2021/09/22 04:22:04;;;;;;;9.25;6.47;;;;;;;8.84;81.20;100796.06;1780921;80;20904;-69
2021/09/22 04:24:32;;;;;;;12.78;6.78;;;;;;;8.85;81.25;100803.00;1780580;80;20955;-70
2021/09/22 04:27:00;;;;;;;8.90;6.58;;;;;;;8.87;81.40;100802.44;1780713;79;20959;-70
2021/09/22 04:29:29;;;;;;;6.97;5.40;;;;;;;8.91;81.94;100807.47;1779726;80;20934;-73
2021/09/22 04:32:16;;;;;;;5.15;3.95;;;;;;;8.99;81.64;100804.92;1780870;79;20884;-72
2021/09/22 04:35:02;;;;;;;8.18;3.83;;;;;;;9.01;81.21;100814.84;1780910;80;21023;-70
2021/09/22 04:37:48;;;;;;;3.98;3.15;;;;;;;9.02;81.19;100813.91;1780641;80;20848;-70
2021/09/22 04:40:28;;;;;;;5.37;3.37;;;;;;;9.06;81.88;100811.05;1766942;80;20912;-69
2021/09/22 04:43:10;;;;;;;6.28;2.55;;;;;;;9.14;81.70;100808.06;1780646;80;20939;-70
2021/09/22 04:45:56;;;;;;;4.85;2.42;;;;;;;9.22;81.61;100811.12;1780762;80;20970;-70
2021/09/22 04:48:42;;;;;;;5.40;2.75;;;;;;;9.24;81.24;100805.34;1780718;80;21800;-70
2021/09/22 04:51:27;;;;;;;2.02;1.90;;;;;;;9.22;81.08;100803.73;1780504;79;20896;-70
2021/09/22 04:54:02;;;;;;;;;;;;;;;9.21;81.37;100814.67;1769629;79;20871;-68
2021/09/22 04:56:47;;;;;;;2.52;2.30;;;;;;;9.23;81.32;100806.28;1780934;80;20094;-68
2021/09/22 04:59:30;;;;;;;6.83;3.75;;;;;;;9.22;81.29;100800.65;1764397;80;20958;-68
2021/09/22 05:02:16;;;;;;;3.50;2.87;;;;;;;9.25;81.50;100808.36;1780547;79;21381;-70
2021/09/22 05:05:01;;;;;;;6.85;3.62;;;;;;;9.25;81.43;100807.05;1780622;80;20978;-70
2021/09/22 05:07:48;;;;;;;6.25;3.42;;;;;;;9.27;81.44;100806.95;1780652;79;20880;-69
2021/09/22 05:10:34;;;;;;;7.80;4.05;;;;;;;9.28;81.34;100811.28;1780686;80;20963;-68
2021/09/22 05:13:22;;;;;;;5.22;3.87;;;;;;;9.29;81.60;100804.67;1780789;79;20978;-69
2021/09/22 05:16:07;;;;;;;8.30;3.37;;;;;;;9.37;81.88;100802.11;1780484;80;21549;-69
2021/09/22 05:18:52;;;;;;;3.35;2.80;;;;;;;9.41;81.30;100803.64;1780644;80;20916;-69
2021/09/22 05:21:39;;;;;;;7.15;4.67;;;;;;;9.38;81.00;100807.23;1780597;80;20915;-69
2021/09/22 05:24:25;;;;;;;6.92;3.98;;;;;;;9.34;81.06;100801.81;1780529;79;20888;-69
2021/09/22 05:27:11;;;;;;;5.87;4.58;;;;;;;9.32;81.16;100803.66;1788764;78;20966;-70
2021/09/22 05:29:57;;;;;;;6.95;3.37;;;;;;;9.31;81.35;100808.02;1788683;80;21196;-69
2021/09/22 05:32:42;;;;;;;4.78;4.05;;;;;;;9.29;81.36;100805.11;1788697;80;20884;-68
2021/09/22 05:35:28;;;;;;;8.60;4.97;;;;;;;9.27;81.41;100807.83;1788779;80;21345;-69
2021/09/22 05:38:16;;;;;;;9.10;6.25;;;;;;;9.28;81.54;100799.50;1788699;80;21317;-70
2021/09/22 05:41:01;;;;;;;10.90;4.60;;;;;;;9.28;81.85;100797.72;1788458;80;20875;-69
2021/09/22 05:43:48;;;;;;;11.55;6.62;;;;;;;9.32;81.96;100794.50;1788823;80;21034;-69
2021/09/22 05:46:34;;;;;;;13.03;8.20;;;;;;;9.35;81.79;100796.94;1788723;80;20966;-69
2021/09/22 05:49:22;;;;;;;12.70;8.28;;;;;;;9.36;81.64;100800.40;1799801;78;21001;-69
2021/09/22 05:52:08;;;;;;;13.40;8.25;;;;;;;9.33;81.43;100798.32;1788874;80;20902;-69
2021/09/22 05:54:54;;;;;;;10.53;7.47;;;;;;;9.34;81.14;100800.03;1788740;80;20891;-69
2021/09/22 05:57:42;;;;;;;11.57;8.85;;;;;;;9.33;81.00;100799.63;1788724;79;21417;-70
2021/09/22 06:00:27;;;;;;;13.70;9.20;;;;;;;9.34;80.96;100805.73;1788628;80;21017;-69
2021/09/22 06:03:13;;;;;;;16.67;11.80;;;;;;;9.35;80.78;100802.18;1788538;80;20883;-69
2021/09/22 06:05:52;;;;;;;11.68;8.75;;;;;;;9.38;80.85;100799.39;1780875;80;20911;-69
2021/09/22 06:08:37;;;;;;;10.40;7.05;;;;;;;9.41;80.92;100799.25;1788779;80;21341;-70
2021/09/22 06:11:11;;;;;;;7.95;5.70;;;;;;;9.44;80.95;100800.86;1789891;78;20918;-70
2021/09/22 06:13:55;;;;;;;6.72;4.70;;;;;;;9.46;80.67;100802.46;1806202;79;20892;-70
2021/09/22 06:16:25;;;;;;;5.62;4.40;;;;;;;9.49;80.66;100796.21;1806954;79;21097;-69
2021/09/22 06:18:54;;;;;;;5.08;4.17;;;;;;;9.52;80.62;100800.84;1806587;78;21489;-71
2021/09/22 06:21:21;;;;;;;7.42;5.20;;;;;;;9.56;80.53;100798.91;1735761;82;21031;-69
2021/09/22 06:23:54;;;;;;;9.70;5.12;;;;;;;9.60;80.26;100801.73;1735423;82;21023;-70
2021/09/22 06:26:24;;;;;;;8.90;5.67;;;;;;;9.63;79.87;100799.44;1728712;82;21565;-69
2021/09/22 06:28:53;;;;;;;5.17;4.53;;;;;;;9.65;79.71;100804.97;1725309;83;20925;-68
2021/09/22 06:31:21;;;;;;;7.45;5.67;;;;;;;9.68;79.52;100794.79;1725099;82;20992;-69
2021/09/22 06:33:50;;;;;;;7.00;5.50;;;;;;;9.71;79.31;100802.47;1796094;79;20909;-70
2021/09/22 06:36:18;;;;;;;6.65;5.22;;;;;;;9.73;79.14;100800.15;1725263;83;21148;-70
2021/09/22 06:38:48;;;;;;;7.17;5.97;;;;;;;9.77;78.98;100799.53;1725341;83;21340;-72
2021/09/22 06:41:16;;;;;;;7.55;5.50;;;;;;;9.80;79.17;100805.90;1725281;83;20866;-71
2021/09/22 06:43:45;;;;;;;7.08;5.50;;;;;;;9.84;79.19;100798.27;1796023;79;20948;-72
2021/09/22 06:46:14;;;;;;;9.43;7.03;;;;;;;9.88;79.35;100799.80;1795914;79;20992;-71
2021/09/22 06:48:41;;;;;;;10.93;8.25;;;;;;;9.92;79.36;100806.56;1795673;79;21418;-71
2021/09/22 06:51:10;;;;;;;10.70;9.60;;;;;;;9.98;79.02;100803.22;1780953;80;20917;-70
2021/09/22 06:53:37;;;;;;;12.60;9.40;;;;;;;10.02;78.64;100802.13;1781582;80;20880;-69
2021/09/22 06:56:04;;;;;;;21.57;12.90;;;;;;;10.07;78.79;100807.52;1783092;80;20967;-70
2021/09/22 06:58:31;;;;;;;15.83;11.35;;;;;;;10.15;78.59;100813.63;1782360;80;21339;-69
2021/09/22 07:00:59;;;;;;;14.35;11.08;;;;;;;10.19;78.34;100814.31;1780786;80;21535;-71
2021/09/22 07:03:26;;;;;;;15.55;10.28;;;;;;;10.26;78.17;100809.95;1780869;80;20895;-69
2021/09/22 07:05:53;;;;;;;16.60;11.93;;;;;;;10.32;78.30;100816.67;1781005;80;20896;-68
2021/09/22 07:08:20;;;;;;;16.70;12.23;;;;;;;10.41;78.21;100814.00;1780649;80;20849;-70
2021/09/22 07:10:47;;;;;;;13.10;10.15;;;;;;;10.50;78.10;100816.09;1780600;80;20915;-65
2021/09/22 07:13:15;;;;;;;15.10;10.53;;;;;;;10.62;78.26;100818.01;1781045;80;21405;-68
2021/09/22 07:15:42;;;;;;;10.60;8.48;;;;;;;10.74;77.72;100810.77;1780724;80;20920;-69
2021/09/22 07:18:10;;;;;;;12.50;8.48;;;;;;;10.88;76.95;100804.70;1780658;80;20904;-69
2021/09/22 07:20:37;;;;;;;17.42;12.55;;;;;;;11.02;76.83;100805.68;1780627;80;20912;-69
2021/09/22 07:23:05;;;;;;;18.62;14.18;;;;;;;11.13;76.44;100811.14;1780802;80;20876;-69
2021/09/22 07:25:33;;;;;;;22.32;14.30;;;;;;;11.24;75.51;100808.72;1781698;80;21925;-68
2021/09/22 07:27:59;;;;;;;16.65;14.10;;;;;;;11.31;74.81;100806.09;1786484;79;20864;-69
2021/09/22 07:30:28;;;;;;;16.45;12.50;;;;;;;11.36;74.04;100805.81;1786576;80;20848;-69
2021/09/22 07:32:59;;;;;;;12.65;10.72;;;;;;;11.40;73.36;100802.07;1786555;79;20879;-69
2021/09/22 07:35:25;;;;;;;15.83;13.40;;;;;;;11.47;72.67;100805.17;1786976;80;20872;-66
2021/09/22 07:37:52;;;;;;;14.95;12.13;;;;;;;11.51;72.15;100810.14;1786591;79;21846;-68
2021/09/22 07:40:20;;;;;;;14.63;9.40;;;;;;;11.56;71.71;100800.66;1786516;80;21404;-67
2021/09/22 07:42:48;;;;;;;8.48;7.50;;;;;;;11.60;71.06;100797.78;1786561;80;20845;-67
2021/09/22 07:45:15;;;;;;;10.78;8.25;;;;;;;11.64;70.26;100804.15;1786471;79;20967;-68
2021/09/22 07:47:42;;;;;;;15.48;8.78;;;;;;;11.65;70.04;100804.06;1786466;80;20954;-66
2021/09/22 07:50:12;;;;;;;10.75;9.65;;;;;;;11.67;69.92;100803.50;1786612;79;21155;-67
2021/09/22 07:52:39;;;;;;;22.40;12.63;;;;;;;11.67;69.88;100802.19;1786505;79;20883;-67
2021/09/22 07:55:09;;;;;;;15.43;11.88;;;;;;;11.69;69.85;100802.08;1786642;80;20907;-68
2021/09/22 07:57:36;;;;;;;18.42;11.57;;;;;;;11.69;69.60;100802.91;1786603;79;20903;-68
2021/09/22 08:00:06;;;;;;;14.33;11.73;;;;;;;11.70;69.87;100803.78;1786540;79;20958;-66
2021/09/22 08:02:36;;;;;;;18.87;13.40;;;;;;;11.64;69.85;100798.42;1786373;79;21146;-68
2021/09/22 08:05:03;;;;;;;24.32;13.50;;;;;;;11.61;70.24;100793.37;1786736;80;20958;-68
2021/09/22 08:07:32;;;;;;;15.30;10.25;;;;;;;11.58;70.14;100794.41;1786559;79;20943;-68
2021/09/22 08:09:59;;;;;;;15.78;8.63;;;;;;;11.61;70.20;100797.31;1786476;80;20959;-67
2021/09/22 08:12:26;;;;;;;7.78;5.22;;;;;;;11.64;69.88;100797.11;1786611;80;20917;-68
2021/09/22 08:14:54;;;;;;;6.72;3.92;;;;;;;11.67;69.34;100793.44;1786386;79;21967;-69
2021/09/22 08:17:21;;;;;;;4.62;3.98;;;;;;;11.68;68.63;100792.05;1786015;80;21022;-73
2021/09/22 08:19:50;;;;;;;4.22;3.62;;;;;;;11.72;68.72;100795.34;1786462;80;21528;-69
2021/09/22 08:22:18;;;;;;;8.75;6.00;;;;;;;11.73;68.63;100793.91;1786441;80;20949;-70
2021/09/22 08:24:46;;;;;;;7.60;5.35;;;;;;;11.74;69.39;100798.23;1786743;80;21575;-69
2021/09/22 08:27:13;;;;;;;5.72;3.25;;;;;;;11.70;69.28;100802.47;1786373;80;21459;-70
2021/09/22 08:29:41;;;;;;;3.60;2.30;;;;;;;11.61;69.84;100799.94;1786668;80;21905;-69
2021/09/22 08:32:09;;;;;;;3.85;2.02;;;;;;;11.53;69.80;100804.33;1786529;79;20920;-68
2021/09/22 08:34:36;;;;;;;2.83;1.80;;;;;;;11.50;69.59;100801.91;1786488;80;20852;-68
2021/09/22 08:37:05;;;;;;;2.27;1.72;;;;;;;11.45;69.86;100806.59;1786558;80;20915;-69
2021/09/22 08:39:32;;;;;;;2.45;1.00;;;;;;;11.39;70.03;100799.08;1786616;80;22070;-68
2021/09/22 08:42:01;;;;;;;0.80;0.80;;;;;;;11.35;69.64;100802.35;1786382;80;20907;-65
2021/09/22 08:44:30;;;;;;;1.25;0.80;;;;;;;11.32;69.28;100797.30;1786470;80;21322;-67
2021/09/22 08:46:58;;;;;;;1.22;0.90;;;;;;;11.32;68.77;100797.77;1786466;80;20912;-67
2021/09/22 08:49:25;;;;;;;1.27;1.12;;;;;;;11.32;68.73;100794.67;1786580;80;20915;-66
2021/09/22 08:51:53;;;;;;;2.05;1.00;;;;;;;11.30;68.40;100795.23;1786419;80;21160;-70
2021/09/22 08:54:21;;;;;;;1.82;1.37;;;;;;;11.26;68.97;100798.97;1786583;79;21018;-67
2021/09/22 08:56:49;;;;;;;1.95;1.20;;;;;;;11.22;69.23;100790.06;1786436;79;21389;-67
2021/09/22 08:59:17;;;;;;;2.15;1.25;;;;;;;11.20;69.30;100794.95;1786417;80;20919;-67
2021/09/22 09:02:14;;;;;;;1.92;1.47;;;;;;;11.20;69.37;100788.39;1786399;79;20884;-67
2021/09/22 09:04:44;;;;;;;1.27;0.80;;;;;;;11.22;69.95;100794.00;1786526;80;21137;-68
2021/09/22 09:07:11;;;;;;;1.27;1.27;;;;;;;11.16;70.39;100785.56;1786128;80;20971;-68
2021/09/22 09:09:42;;;;;;;1.30;1.30;;;;;;;11.15;70.44;100785.17;1786663;80;20864;-67
2021/09/22 09:12:23;;;;;;;2.35;1.50;;;;;;;11.17;70.88;100792.48;1786735;80;21475;-68
2021/09/22 09:14:56;;;;;;;1.50;1.40;;;;;;;11.15;71.11;100785.17;1786409;80;21591;-67
2021/09/22 09:17:44;;;;;;;1.70;1.60;;;;;;;11.11;71.17;100788.91;1786442;80;21460;-68
2021/09/22 09:20:16;;;;;;;2.12;1.12;;;;;;;11.11;70.97;100791.53;1786651;80;21385;-67
2021/09/22 09:23:02;;;;;;;3.65;1.12;;;;;;;11.13;71.08;100787.52;1786504;80;20935;-67
2021/09/22 09:25:32;;;;;;;1.62;1.50;;;;;;;11.13;71.26;100787.04;1783788;80;20976;-66
2021/09/22 09:27:59;;;;;;;3.02;1.40;;;;;;;11.13;71.37;100792.77;1780431;79;20848;-66
2021/09/22 09:30:28;;;;;;;3.80;1.60;;;;;;;11.14;71.47;100783.50;1750840;80;21168;-68
2021/09/22 09:32:55;;;;;;;1.95;1.62;;;;;;;11.21;71.97;100783.97;1780483;80;20967;-67
2021/09/22 09:35:24;;;;;;;2.47;1.55;;;;;;;11.26;71.69;100786.32;1780598;79;20928;-67
2021/09/22 09:37:53;;;;;;;2.40;2.10;;;;;;;11.30;71.46;100786.52;1780785;80;20927;-68
2021/09/22 09:40:35;;;;;;;1.60;1.50;;;;;;;11.31;71.26;100782.47;1780563;79;21460;-68
2021/09/22 09:43:07;;;;;;;3.37;2.42;;;;;;;11.32;71.15;100782.02;1780719;80;21537;-67
2021/09/22 09:45:44;;;;;;;2.85;2.65;;;;;;;11.34;71.01;100786.71;1780628;80;20903;-68
2021/09/22 09:48:18;;;;;;;4.45;3.47;;;;;;;11.33;70.62;100785.00;1780869;80;20966;-67
2021/09/22 09:50:56;;;;;;;3.30;2.85;;;;;;;11.26;70.45;100787.16;1780747;80;20872;-68
2021/09/22 09:53:30;;;;;;;5.72;3.40;;;;;;;11.18;70.50;100788.95;1746807;80;20978;-68
2021/09/22 09:56:04;;;;;;;3.47;3.08;;;;;;;11.15;70.69;100785.64;1780833;80;21808;-68
2021/09/22 09:58:42;;;;;;;;;;;;;;;11.12;70.95;100797.66;1783167;80;20911;-67
2021/09/22 10:01:09;;;;;;;2.50;2.25;;;;;;;11.11;71.25;100800.72;1780867;79;20098;-68
2021/09/22 10:03:37;;;;;;;2.55;2.35;;;;;;;11.09;71.80;100797.34;1780664;80;20998;-68
2021/09/22 10:06:06;;;;;;;2.72;2.52;;;;;;;11.08;71.63;100798.77;1781219;79;20856;-69
2021/09/22 10:08:33;;;;;;;6.00;3.45;;;;;;;11.06;71.71;100794.91;1781174;79;21491;-67
2021/09/22 10:11:03;;;;;;;3.30;2.85;;;;;;;11.04;71.64;100791.53;1781820;80;21290;-68
2021/09/22 10:13:29;;;;;;;2.90;2.70;;;;;;;11.03;71.36;100794.23;1782160;80;20955;-69
2021/09/22 10:15:58;;;;;;;4.85;3.35;;;;;;;11.02;71.54;100792.56;1780907;80;20904;-67
2021/09/22 10:18:25;;;;;;;3.60;2.70;;;;;;;11.02;71.79;100794.70;1781144;80;20924;-68
2021/09/22 10:20:52;;;;;;;3.70;3.40;;;;;;;11.04;71.77;100796.78;1780715;79;21146;-69
2021/09/22 10:23:23;;;;;;;4.03;3.37;;;;;;;11.07;71.88;100793.13;1780774;79;21089;-68
2021/09/22 10:25:50;;;;;;;4.25;3.17;;;;;;;11.10;71.97;100791.64;1780488;79;20879;-69
2021/09/22 10:28:41;;;;;;;2.95;2.65;;;;;;;11.13;71.98;100794.91;1780538;79;21405;-69
2021/09/22 10:31:30;;;;;;;4.80;3.37;;;;;;;11.15;71.94;100791.73;1780692;80;20860;-67
2021/09/22 10:33:57;;;;;;;3.30;3.00;;;;;;;11.19;71.94;100798.97;1780783;80;21146;-67
2021/09/22 10:36:41;;;;;;;3.02;2.83;;;;;;;11.19;71.74;100796.34;1780933;80;20959;-67
2021/09/22 10:39:14;;;;;;;3.22;2.67;;;;;;;11.19;71.84;100795.03;1780704;80;20887;-67
2021/09/22 10:41:43;;;;;;;3.73;2.50;;;;;;;11.17;72.00;100793.80;1751166;80;20970;-68
2021/09/22 10:44:15;;;;;;;2.47;2.27;;;;;;;11.17;72.21;100796.91;1780775;80;20820;-67
2021/09/22 10:46:42;;;;;;;2.50;2.40;;;;;;;11.17;72.17;100789.02;1777481;80;21681;-68
2021/09/22 10:49:14;;;;;;;3.35;2.80;;;;;;;11.17;72.22;100791.65;1780628;79;20903;-66
2021/09/22 10:51:48;;;;;;;2.75;2.55;;;;;;;11.16;72.15;100790.81;1781002;80;21314;-67
2021/09/22 10:54:22;;;;;;;3.10;2.90;;;;;;;11.16;72.03;100784.25;1780895;79;20904;-67
2021/09/22 10:56:58;;;;;;;2.45;2.35;;;;;;;11.16;72.13;100789.94;1781348;80;20871;-68
2021/09/22 10:59:30;;;;;;;3.37;3.08;;;;;;;11.16;72.53;100788.19;1780632;79;21789;-68
2021/09/22 11:01:59;;;;;;;3.08;2.87;;;;;;;11.18;72.90;100787.63;1780703;80;21015;-68
2021/09/22 11:04:26;;;;;;;3.27;3.02;;;;;;;11.22;72.98;100788.75;1780824;80;20836;-69
2021/09/22 11:06:55;;;;;;;3.30;3.10;;;;;;;11.24;73.05;100789.03;1780710;80;20939;-67
2021/09/22 11:09:28;;;;;;;3.25;3.05;;;;;;;11.29;73.00;100785.64;1780840;80;21510;-68
2021/09/22 11:12:03;;;;;;;4.42;4.12;;;;;;;11.32;72.90;100787.27;1781134;80;21840;-69
2021/09/22 11:14:47;;;;;;;3.92;3.22;;;;;;;11.31;72.82;100782.94;1780607;80;20955;-67
2021/09/22 11:17:24;;;;;;;3.22;3.02;;;;;;;11.31;72.87;100777.69;1781072;79;20951;-68
2021/09/22 11:19:56;;;;;;;2.75;2.55;;;;;;;11.31;72.64;100777.69;1780859;80;20927;-67
2021/09/22 11:22:33;;;;;;;3.58;3.27;;;;;;;11.32;72.77;100780.23;1780667;79;20967;-69
2021/09/22 11:25:08;;;;;;;2.92;2.83;;;;;;;11.36;72.63;100777.80;1780798;80;20935;-70
2021/09/22 11:27:37;;;;;;;3.67;3.37;;;;;;;11.35;72.38;100777.41;1780640;80;20861;-69
2021/09/22 11:30:08;;;;;;;3.87;3.50;;;;;;;11.30;72.58;100772.91;1780846;80;20888;-71
2021/09/22 11:32:41;;;;;;;3.33;3.12;;;;;;;11.27;72.66;100774.42;1779940;80;20923;-68
2021/09/22 11:35:15;;;;;;;3.42;3.12;;;;;;;11.26;72.72;100771.88;1781150;80;20952;-67
2021/09/22 11:37:45;;;;;;;7.95;3.37;;;;;;;11.24;72.68;100776.37;1780645;80;21127;-67
2021/09/22 11:40:24;;;;;;;4.05;3.65;;;;;;;11.18;72.73;100773.20;1780896;80;21010;-66
2021/09/22 11:43:03;;;;;;;3.75;3.45;;;;;;;11.15;72.77;100773.36;1780319;80;20906;-66
2021/09/22 11:45:36;;;;;;;7.28;6.60;;;;;;;11.11;72.82;100770.53;1781079;80;20967;-68
2021/09/22 11:48:04;;;;;;;6.10;5.60;;;;;;;11.07;72.88;100765.56;1780770;80;21354;-67
2021/09/22 11:50:35;;;;;;;4.83;4.40;;;;;;;11.05;73.09;100773.55;1781251;80;21104;-67